Pagrindinis puslapis
METAR-TAF:

METAR-TAF

Oro uostai :

Berlevåg, Norvegija

platuma: 70-52N, ilguma: 029-02E, Aukštis: 1 m

Dabartinis oras

Ataskaita buvo paskelbta 20 minutes, ne 22:50 UTC
Vėjas 2 kt nuo kintamojo kryptimis
Temperatūra 19°C
Drėgmė 68%
Slėgis 1009 hPa
Matomumas 10 km arba daugiau

METAR: ENBV 022250Z AUTO VRB02KT 9999 NCD 19/13 Q1009

Laikas: 01:10 (23:10 UTC)

Prognozė

Ataskaita buvo paskelbta 33 valandos ir 10 minutes, ne 14:00 UTC
Prognozė galioja nuo 01 metu 15 UTC su 01 metu 21 UTC
Vėjas 20 kt iš Rytų
Matomumas 10 km arba daugiau
Mažai debesys ne aukštis 100 ft
Išsisklaidę debesys ne aukštis 7000 ft
Laikinai
nuo 01 metu 15 UTC su 01 metu 21 UTC
Matomumas: 0800 m
ne aukštis 100 ft
rūkas

TAF: ENBV 011400Z 0115/0121 10020KT 9999 FEW001 SCT070 TEMPO 0115/0121 0800 FG VV001

Orai ataskaitas ir orų prognozės (METAR, TAF).

turimą stotys yra geltonos ir raudonos taškus žemėlapyje.

Perkelti pele per norėdami pamatyti stoties vardą.

Tada spustelėkite, norėdami matyti oro stebėjimo ir prognozės.

Norėdami pakeisti žemėlapį: spustelėkite ant žalios mygtukų su juodo kryžiaus žemyn,; žalią mygtuką su brūkšneliu, jei norite nutolinti; arba žalių rodyklių gretimoms žemėlapius.


METAR-TAF: